Aventura, Florida
Current Conditions -  °F | °C
As of 11:53 PM on Monday 26 Jan 2015 (Local Time) from KHWO Reporting Station
Few Clouds Few Clouds  
Wind Chill: 14°   Ceiling: Unl
Heat Index: 14°   Visibility: 10mi
Dew Point:   Wind: 8mph
Humidity: 72%   Direction: 290°WNW
Pressure: 30.01"   Gusts: NA
Location:  25.9536°N, 80.1568°W
Report Text: KHWO 270453Z AUTO 29007KT 10SM FEW037 14/09 A3001 RMK AO2 SLP160 T01440094 402390117
Loading
Personal Weather Stations






























Interactive Weather Map New forecast layout! Learn more

10-Day Weather Forecast

Advertisements
Track Severe Weather on mobile